West Middletown, Pennsylvania
Current Conditions -  °F | °C
As of 9:35 PM on Thursday 20 Nov 2014 (Local Time) from KAFJ Reporting Station
Overcast Overcast  
Wind Chill: 15°   Ceiling: 5000
Heat Index: 25°   Visibility: 10mi
Dew Point: 12°   Wind: 10mph
Humidity: 59%   Direction: 260°W
Pressure: 30.12"   Gusts: 23mph
Location:  40.24°N, 80.43°W
Report Text: KAFJ 210235Z 26009G20KT 10SM OVC050 M04/M11 A3012 RMK AO1
Loading
Personal Weather Stations






























Interactive Weather Map New forecast layout! Learn more

10-Day Weather Forecast

Advertisements
Track Severe Weather on mobile